sensor_id;sensor_type;location;lat;lon;timestamp;pressure;altitude;pressure_sealevel;temperature;humidity
23616;BME280;11985;49.404;7.734;2023-04-19T00:01:25;97906.69;;;8.42;100.00
23616;BME280;11985;49.404;7.734;2023-04-19T00:06:27;97904.78;;;8.36;100.00
23616;BME280;11985;49.404;7.734;2023-04-19T00:11:31;97908.38;;;8.35;100.00
23616;BME280;11985;49.404;7.734;2023-04-19T00:16:32;97904.13;;;8.34;100.00
23616;BME280;11985;49.404;7.734;2023-04-19T00:21:34;97906.28;;;8.31;100.00
23616;BME280;11985;49.404;7.734;2023-04-19T00:26:37;97899.59;;;8.28;100.00
23616;BME280;11985;49.404;7.734;2023-04-19T00:31:39;97899.72;;;8.27;100.00
23616;BME280;11985;49.404;7.734;2023-04-19T00:36:40;97900.53;;;8.27;100.00
23616;BME280;11985;49.404;7.734;2023-04-19T00:41:43;97897.66;;;8.22;100.00
23616;BME280;11985;49.404;7.734;2023-04-19T00:46:45;97900.63;;;8.19;100.00
23616;BME280;11985;49.404;7.734;2023-04-19T00:51:46;97897.41;;;8.09;100.00
23616;BME280;11985;49.404;7.734;2023-04-19T00:56:50;97905.97;;;8.03;100.00
23616;BME280;11985;49.404;7.734;2023-04-19T01:01:52;97903.22;;;7.96;100.00
23616;BME280;11985;49.404;7.734;2023-04-19T01:06:53;97896.38;;;7.95;100.00
23616;BME280;11985;49.404;7.734;2023-04-19T01:11:56;97895.53;;;7.94;100.00
23616;BME280;11985;49.404;7.734;2023-04-19T01:16:58;97886.03;;;7.93;100.00
23616;BME280;11985;49.404;7.734;2023-04-19T01:21:59;97886.88;;;7.94;100.00
23616;BME280;11985;49.404;7.734;2023-04-19T01:27:03;97881.13;;;7.90;100.00
23616;BME280;11985;49.404;7.734;2023-04-19T01:32:05;97875.91;;;7.90;100.00
23616;BME280;11985;49.404;7.734;2023-04-19T01:37:07;97879.03;;;7.86;100.00
23616;BME280;11985;49.404;7.734;2023-04-19T01:42:10;97872.50;;;7.82;100.00
23616;BME280;11985;49.404;7.734;2023-04-19T01:47:11;97869.06;;;7.81;100.00
23616;BME280;11985;49.404;7.734;2023-04-19T01:52:13;97860.56;;;7.79;100.00
23616;BME280;11985;49.404;7.734;2023-04-19T01:57:16;97857.28;;;7.77;100.00
23616;BME280;11985;49.404;7.734;2023-04-19T02:02:18;97855.00;;;7.74;100.00
23616;BME280;11985;49.404;7.734;2023-04-19T02:07:19;97852.28;;;7.67;100.00
23616;BME280;11985;49.404;7.734;2023-04-19T02:12:22;97848.03;;;7.66;100.00
23616;BME280;11985;49.404;7.734;2023-04-19T02:17:24;97842.94;;;7.65;100.00
23616;BME280;11985;49.404;7.734;2023-04-19T02:22:26;97839.66;;;7.63;100.00
23616;BME280;11985;49.404;7.734;2023-04-19T02:27:29;97837.38;;;7.60;100.00
23616;BME280;11985;49.404;7.734;2023-04-19T02:32:30;97836.75;;;7.58;100.00
23616;BME280;11985;49.404;7.734;2023-04-19T02:37:32;97835.94;;;7.57;100.00
23616;BME280;11985;49.404;7.734;2023-04-19T02:42:35;97840.38;;;7.57;100.00
23616;BME280;11985;49.404;7.734;2023-04-19T02:47:37;97835.13;;;7.57;100.00
23616;BME280;11985;49.404;7.734;2023-04-19T02:52:38;97833.00;;;7.52;100.00
23616;BME280;11985;49.404;7.734;2023-04-19T02:57:41;97828.75;;;7.51;100.00
23616;BME280;11985;49.404;7.734;2023-04-19T03:02:43;97837.44;;;7.52;100.00
23616;BME280;11985;49.404;7.734;2023-04-19T03:07:44;97832.19;;;7.52;100.00
23616;BME280;11985;49.404;7.734;2023-04-19T03:12:47;97828.59;;;7.53;100.00
23616;BME280;11985;49.404;7.734;2023-04-19T03:17:49;97822.03;;;7.49;100.00
23616;BME280;11985;49.404;7.734;2023-04-19T03:22:50;97825.34;;;7.51;100.00
23616;BME280;11985;49.404;7.734;2023-04-19T03:27:54;97825.16;;;7.52;100.00
23616;BME280;11985;49.404;7.734;2023-04-19T03:32:56;97820.41;;;7.48;100.00
23616;BME280;11985;49.404;7.734;2023-04-19T03:37:59;97810.13;;;7.46;100.00
23616;BME280;11985;49.404;7.734;2023-04-19T03:43:02;97807.00;;;7.43;100.00
23616;BME280;11985;49.404;7.734;2023-04-19T03:48:04;97802.94;;;7.40;100.00
23616;BME280;11985;49.404;7.734;2023-04-19T03:53:06;97798.81;;;7.46;100.00
23616;BME280;11985;49.404;7.734;2023-04-19T03:58:09;97791.84;;;7.61;100.00
23616;BME280;11985;49.404;7.734;2023-04-19T04:03:10;97800.28;;;7.71;100.00
23616;BME280;11985;49.404;7.734;2023-04-19T04:08:12;97795.03;;;7.71;100.00
23616;BME280;11985;49.404;7.734;2023-04-19T04:13:15;97791.44;;;7.72;100.00
23616;BME280;11985;49.404;7.734;2023-04-19T04:18:17;97802.38;;;7.76;100.00
23616;BME280;11985;49.404;7.734;2023-04-19T04:23:18;97801.25;;;7.78;100.00
23616;BME280;11985;49.404;7.734;2023-04-19T04:28:22;97800.44;;;7.78;100.00
23616;BME280;11985;49.404;7.734;2023-04-19T04:33:25;97798.31;;;7.73;100.00
23616;BME280;11985;49.404;7.734;2023-04-19T04:38:27;97798.22;;;7.66;100.00
23616;BME280;11985;49.404;7.734;2023-04-19T04:43:30;97794.06;;;7.72;100.00
23616;BME280;11985;49.404;7.734;2023-04-19T04:48:32;97799.44;;;7.79;100.00
23616;BME280;11985;49.404;7.734;2023-04-19T04:53:34;97803.69;;;7.80;100.00
23616;BME280;11985;49.404;7.734;2023-04-19T04:58:37;97803.91;;;7.70;100.00
23616;BME280;11985;49.404;7.734;2023-04-19T05:03:39;97813.47;;;7.63;100.00
23616;BME280;11985;49.404;7.734;2023-04-19T05:08:40;97806.59;;;7.62;100.00
23616;BME280;11985;49.404;7.734;2023-04-19T05:13:43;97803.31;;;7.60;100.00
23616;BME280;11985;49.404;7.734;2023-04-19T05:18:45;97812.03;;;7.52;100.00
23616;BME280;11985;49.404;7.734;2023-04-19T05:23:46;97813.03;;;7.51;100.00
23616;BME280;11985;49.404;7.734;2023-04-19T05:28:49;97819.22;;;7.58;100.00
23616;BME280;11985;49.404;7.734;2023-04-19T05:33:51;97805.53;;;7.71;100.00
23616;BME280;11985;49.404;7.734;2023-04-19T05:38:52;97812.06;;;7.75;100.00
23616;BME280;11985;49.404;7.734;2023-04-19T05:43:55;97812.75;;;7.69;100.00
23616;BME280;11985;49.404;7.734;2023-04-19T05:48:57;97813.06;;;7.74;100.00
23616;BME280;11985;49.404;7.734;2023-04-19T05:53:59;97819.59;;;7.78;100.00
23616;BME280;11985;49.404;7.734;2023-04-19T05:59:02;97818.22;;;7.82;100.00
23616;BME280;11985;49.404;7.734;2023-04-19T06:04:03;97808.44;;;7.76;100.00
23616;BME280;11985;49.404;7.734;2023-04-19T06:09:05;97818.63;;;7.71;100.00
23616;BME280;11985;49.404;7.734;2023-04-19T06:14:09;97817.31;;;7.75;100.00
23616;BME280;11985;49.404;7.734;2023-04-19T06:19:10;97819.88;;;7.83;100.00
23616;BME280;11985;49.404;7.734;2023-04-19T06:24:12;97826.97;;;7.98;100.00
23616;BME280;11985;49.404;7.734;2023-04-19T06:29:15;97830.13;;;8.16;100.00
23616;BME280;11985;49.404;7.734;2023-04-19T06:34:19;97825.91;;;8.30;100.00
23616;BME280;11985;49.404;7.734;2023-04-19T06:39:21;97827.31;;;8.40;100.00
23616;BME280;11985;49.404;7.734;2023-04-19T06:44:24;97825.19;;;8.44;100.00
23616;BME280;11985;49.404;7.734;2023-04-19T06:49:26;97818.66;;;8.55;100.00
23616;BME280;11985;49.404;7.734;2023-04-19T06:54:27;97822.56;;;8.59;100.00
23616;BME280;11985;49.404;7.734;2023-04-19T06:59:30;97819.50;;;8.70;100.00
23616;BME280;11985;49.404;7.734;2023-04-19T07:04:32;97819.22;;;8.65;100.00
23616;BME280;11985;49.404;7.734;2023-04-19T07:09:34;97815.53;;;8.89;100.00
23616;BME280;11985;49.404;7.734;2023-04-19T07:14:37;97820.69;;;9.12;100.00
23616;BME280;11985;49.404;7.734;2023-04-19T07:19:46;97810.59;;;9.15;100.00
23616;BME280;11985;49.404;7.734;2023-04-19T07:24:47;97808.97;;;9.14;100.00
23616;BME280;11985;49.404;7.734;2023-04-19T07:29:52;97805.72;;;9.12;100.00
23616;BME280;11985;49.404;7.734;2023-04-19T07:34:54;97796.97;;;9.41;100.00
23616;BME280;11985;49.404;7.734;2023-04-19T07:39:55;97800.00;;;9.81;100.00
23616;BME280;11985;49.404;7.734;2023-04-19T07:44:58;97802.34;;;10.12;100.00
23616;BME280;11985;49.404;7.734;2023-04-19T07:50:00;97800.06;;;10.30;100.00
23616;BME280;11985;49.404;7.734;2023-04-19T07:55:02;97795.88;;;10.15;100.00
23616;BME280;11985;49.404;7.734;2023-04-19T08:00:07;97793.88;;;9.95;100.00
23616;BME280;11985;49.404;7.734;2023-04-19T08:05:10;97789.50;;;9.81;100.00
23616;BME280;11985;49.404;7.734;2023-04-19T08:10:12;97782.25;;;9.83;100.00
23616;BME280;11985;49.404;7.734;2023-04-19T08:15:15;97788.13;;;10.07;100.00
23616;BME280;11985;49.404;7.734;2023-04-19T08:20:17;97786.97;;;10.37;100.00
23616;BME280;11985;49.404;7.734;2023-04-19T08:25:18;97789.72;;;10.50;100.00
23616;BME280;11985;49.404;7.734;2023-04-19T08:30:22;97792.72;;;10.04;100.00
23616;BME280;11985;49.404;7.734;2023-04-19T08:35:24;97797.94;;;9.76;100.00
23616;BME280;11985;49.404;7.734;2023-04-19T08:40:26;97805.00;;;9.55;100.00
23616;BME280;11985;49.404;7.734;2023-04-19T08:45:30;97796.28;;;9.54;100.00
23616;BME280;11985;49.404;7.734;2023-04-19T08:50:32;97786.22;;;9.58;100.00
23616;BME280;11985;49.404;7.734;2023-04-19T08:55:35;97791.53;;;9.64;100.00
23616;BME280;11985;49.404;7.734;2023-04-19T09:00:39;97779.22;;;9.65;100.00
23616;BME280;11985;49.404;7.734;2023-04-19T09:05:41;97775.22;;;9.69;100.00
23616;BME280;11985;49.404;7.734;2023-04-19T09:10:51;97770.47;;;9.79;100.00
23616;BME280;11985;49.404;7.734;2023-04-19T09:15:55;97770.06;;;9.82;100.00
23616;BME280;11985;49.404;7.734;2023-04-19T09:20:58;97771.47;;;9.78;100.00
23616;BME280;11985;49.404;7.734;2023-04-19T09:26:01;97762.88;;;9.69;100.00
23616;BME280;11985;49.404;7.734;2023-04-19T09:31:11;97759.22;;;9.92;100.00
23616;BME280;11985;49.404;7.734;2023-04-19T09:36:26;97756.25;;;10.44;100.00
23616;BME280;11985;49.404;7.734;2023-04-19T09:41:28;97747.66;;;10.70;100.00
23616;BME280;11985;49.404;7.734;2023-04-19T09:46:34;97737.41;;;10.47;100.00
23616;BME280;11985;49.404;7.734;2023-04-19T09:51:39;97735.53;;;10.41;100.00
23616;BME280;11985;49.404;7.734;2023-04-19T09:56:41;97730.25;;;10.76;100.00
23616;BME280;11985;49.404;7.734;2023-04-19T10:01:45;97725.72;;;11.04;100.00
23616;BME280;11985;49.404;7.734;2023-04-19T10:06:48;97722.34;;;11.17;100.00
23616;BME280;11985;49.404;7.734;2023-04-19T10:11:51;97723.41;;;11.36;100.00
23616;BME280;11985;49.404;7.734;2023-04-19T10:16:55;97719.78;;;11.50;100.00
23616;BME280;11985;49.404;7.734;2023-04-19T10:21:56;97718.38;;;11.68;98.08
23616;BME280;11985;49.404;7.734;2023-04-19T10:27:08;97711.88;;;11.63;97.25
23616;BME280;11985;49.404;7.734;2023-04-19T10:32:13;97727.50;;;11.65;95.64
23616;BME280;11985;49.404;7.734;2023-04-19T10:37:15;97716.13;;;11.51;95.73
23616;BME280;11985;49.404;7.734;2023-04-19T10:42:17;97708.94;;;11.19;96.21
23616;BME280;11985;49.404;7.734;2023-04-19T10:47:42;97719.03;;;11.02;97.79
23616;BME280;11985;49.404;7.734;2023-04-19T10:52:44;97712.47;;;10.84;97.95
23616;BME280;11985;49.404;7.734;2023-04-19T10:58:02;97701.06;;;10.71;98.87
23616;BME280;11985;49.404;7.734;2023-04-19T11:08:43;97694.63;;;10.39;99.58
23616;BME280;11985;49.404;7.734;2023-04-19T11:13:46;97694.53;;;10.25;100.00
23616;BME280;11985;49.404;7.734;2023-04-19T11:18:48;97688.34;;;10.12;99.40
23616;BME280;11985;49.404;7.734;2023-04-19T11:24:07;97679.72;;;9.96;98.73
23616;BME280;11985;49.404;7.734;2023-04-19T11:29:09;97684.53;;;10.21;98.17
23616;BME280;11985;49.404;7.734;2023-04-19T11:34:11;97683.22;;;10.31;94.34
23616;BME280;11985;49.404;7.734;2023-04-19T11:39:14;97667.91;;;10.48;92.37
23616;BME280;11985;49.404;7.734;2023-04-19T11:44:16;97663.19;;;10.72;89.90
23616;BME280;11985;49.404;7.734;2023-04-19T11:49:25;97655.94;;;10.94;86.36
23616;BME280;11985;49.404;7.734;2023-04-19T11:54:27;97641.81;;;11.08;83.19
23616;BME280;11985;49.404;7.734;2023-04-19T11:59:30;97639.97;;;11.08;81.82
23616;BME280;11985;49.404;7.734;2023-04-19T12:04:32;97638.00;;;11.37;80.67
23616;BME280;11985;49.404;7.734;2023-04-19T12:09:35;97629.69;;;11.67;79.61
23616;BME280;11985;49.404;7.734;2023-04-19T12:14:37;97620.94;;;12.12;79.77
23616;BME280;11985;49.404;7.734;2023-04-19T12:19:44;97621.66;;;12.46;77.39
23616;BME280;11985;49.404;7.734;2023-04-19T12:24:50;97614.75;;;12.45;76.41
23616;BME280;11985;49.404;7.734;2023-04-19T12:29:52;97607.63;;;12.46;76.27
23616;BME280;11985;49.404;7.734;2023-04-19T12:34:54;97614.34;;;12.41;75.31
23616;BME280;11985;49.404;7.734;2023-04-19T12:39:57;97605.75;;;12.59;74.14
23616;BME280;11985;49.404;7.734;2023-04-19T12:44:58;97594.19;;;12.60;72.54
23616;BME280;11985;49.404;7.734;2023-04-19T12:50:00;97594.19;;;12.60;71.92
23616;BME280;11985;49.404;7.734;2023-04-19T12:55:04;97581.69;;;12.74;71.11
23616;BME280;11985;49.404;7.734;2023-04-19T13:00:07;97578.94;;;12.94;70.75
23616;BME280;11985;49.404;7.734;2023-04-19T13:05:10;97571.25;;;13.17;69.93
23616;BME280;11985;49.404;7.734;2023-04-19T13:10:13;97559.94;;;13.10;66.53
23616;BME280;11985;49.404;7.734;2023-04-19T13:15:15;97555.22;;;13.12;65.35
23616;BME280;11985;49.404;7.734;2023-04-19T13:20:17;97541.94;;;13.19;65.46
23616;BME280;11985;49.404;7.734;2023-04-19T13:25:20;97534.72;;;13.58;64.74
23616;BME280;11985;49.404;7.734;2023-04-19T13:30:22;97529.25;;;13.78;62.36
23616;BME280;11985;49.404;7.734;2023-04-19T13:35:24;97535.84;;;13.68;61.85
23616;BME280;11985;49.404;7.734;2023-04-19T13:40:27;97521.25;;;13.09;60.60
23616;BME280;11985;49.404;7.734;2023-04-19T13:45:28;97522.75;;;13.05;60.57
23616;BME280;11985;49.404;7.734;2023-04-19T13:50:30;97512.59;;;13.02;60.31
23616;BME280;11985;49.404;7.734;2023-04-19T13:55:33;97515.91;;;13.23;59.62
23616;BME280;11985;49.404;7.734;2023-04-19T14:00:34;97505.06;;;12.99;57.59
23616;BME280;11985;49.404;7.734;2023-04-19T14:05:36;97499.69;;;13.12;57.53
23616;BME280;11985;49.404;7.734;2023-04-19T14:10:39;97498.56;;;13.52;56.61
23616;BME280;11985;49.404;7.734;2023-04-19T14:15:41;97487.31;;;13.56;53.56
23616;BME280;11985;49.404;7.734;2023-04-19T14:20:42;97488.00;;;13.70;53.29
23616;BME280;11985;49.404;7.734;2023-04-19T14:25:46;97478.19;;;13.70;52.35
23616;BME280;11985;49.404;7.734;2023-04-19T14:30:47;97473.59;;;13.23;50.70
23616;BME280;11985;49.404;7.734;2023-04-19T14:35:49;97468.25;;;13.29;50.69
23616;BME280;11985;49.404;7.734;2023-04-19T14:40:52;97464.00;;;13.65;50.08
23616;BME280;11985;49.404;7.734;2023-04-19T14:45:54;97457.44;;;14.04;48.72
23616;BME280;11985;49.404;7.734;2023-04-19T14:50:56;97451.72;;;14.07;48.08
23616;BME280;11985;49.404;7.734;2023-04-19T14:56:02;97460.47;;;14.38;47.86
23616;BME280;11985;49.404;7.734;2023-04-19T15:01:13;97456.50;;;14.17;44.80
23616;BME280;11985;49.404;7.734;2023-04-19T15:06:15;97442.75;;;13.53;43.48
23616;BME280;11985;49.404;7.734;2023-04-19T15:11:18;97440.28;;;13.95;44.00
23616;BME280;11985;49.404;7.734;2023-04-19T15:16:20;97445.81;;;14.23;43.22
23616;BME280;11985;49.404;7.734;2023-04-19T15:21:22;97438.09;;;14.52;42.75
23616;BME280;11985;49.404;7.734;2023-04-19T15:26:25;97442.69;;;14.26;41.06
23616;BME280;11985;49.404;7.734;2023-04-19T15:31:26;97438.91;;;14.04;41.25
23616;BME280;11985;49.404;7.734;2023-04-19T15:36:28;97438.66;;;13.94;40.99
23616;BME280;11985;49.404;7.734;2023-04-19T15:41:31;97436.88;;;13.69;40.74
23616;BME280;11985;49.404;7.734;2023-04-19T15:46:33;97447.94;;;13.66;41.01
23616;BME280;11985;49.404;7.734;2023-04-19T15:51:34;97447.19;;;13.59;39.63
23616;BME280;11985;49.404;7.734;2023-04-19T15:56:38;97441.50;;;13.12;39.43
23616;BME280;11985;49.404;7.734;2023-04-19T16:01:40;97437.41;;;13.41;39.88
23616;BME280;11985;49.404;7.734;2023-04-19T16:06:42;97434.69;;;13.48;38.35
23616;BME280;11985;49.404;7.734;2023-04-19T16:11:44;97436.25;;;13.56;37.90
23616;BME280;11985;49.404;7.734;2023-04-19T16:16:46;97427.97;;;14.00;37.42
23616;BME280;11985;49.404;7.734;2023-04-19T16:21:48;97430.47;;;13.95;37.14
23616;BME280;11985;49.404;7.734;2023-04-19T16:26:51;97441.59;;;13.86;36.50
23616;BME280;11985;49.404;7.734;2023-04-19T16:31:53;97434.75;;;13.78;34.91
23616;BME280;11985;49.404;7.734;2023-04-19T16:36:54;97446.09;;;14.15;33.50
23616;BME280;11985;49.404;7.734;2023-04-19T16:41:57;97431.69;;;14.71;32.14
23616;BME280;11985;49.404;7.734;2023-04-19T16:46:59;97433.72;;;14.27;30.93
23616;BME280;11985;49.404;7.734;2023-04-19T16:52:01;97435.06;;;15.02;30.59
23616;BME280;11985;49.404;7.734;2023-04-19T16:57:04;97425.56;;;17.46;29.19
23616;BME280;11985;49.404;7.734;2023-04-19T17:02:06;97422.41;;;19.75;27.09
23616;BME280;11985;49.404;7.734;2023-04-19T17:07:09;97425.13;;;16.99;26.54
23616;BME280;11985;49.404;7.734;2023-04-19T17:12:12;97428.19;;;17.24;26.60
23616;BME280;11985;49.404;7.734;2023-04-19T17:17:13;97426.38;;;17.85;26.10
23616;BME280;11985;49.404;7.734;2023-04-19T17:22:17;97428.47;;;16.15;25.79
23616;BME280;11985;49.404;7.734;2023-04-19T17:27:20;97420.88;;;13.46;26.77
23616;BME280;11985;49.404;7.734;2023-04-19T17:32:21;97432.63;;;12.19;29.22
23616;BME280;11985;49.404;7.734;2023-04-19T17:37:23;97427.38;;;11.60;30.84
23616;BME280;11985;49.404;7.734;2023-04-19T17:42:26;97430.91;;;11.28;31.75
23616;BME280;11985;49.404;7.734;2023-04-19T17:47:29;97436.81;;;10.90;32.74
23616;BME280;11985;49.404;7.734;2023-04-19T17:52:30;97433.56;;;10.75;33.58
23616;BME280;11985;49.404;7.734;2023-04-19T17:57:33;97439.22;;;10.52;34.17
23616;BME280;11985;49.404;7.734;2023-04-19T18:02:35;97431.50;;;10.37;34.56
23616;BME280;11985;49.404;7.734;2023-04-19T18:07:37;97435.94;;;10.23;35.44
23616;BME280;11985;49.404;7.734;2023-04-19T18:12:39;97434.72;;;10.26;35.53
23616;BME280;11985;49.404;7.734;2023-04-19T18:17:41;97447.28;;;10.30;35.89
23616;BME280;11985;49.404;7.734;2023-04-19T18:22:43;97446.28;;;10.25;36.59
23616;BME280;11985;49.404;7.734;2023-04-19T18:27:49;97441.56;;;10.14;36.73
23616;BME280;11985;49.404;7.734;2023-04-19T18:32:50;97442.72;;;10.04;37.14
23616;BME280;11985;49.404;7.734;2023-04-19T18:37:52;97452.41;;;9.91;37.60
23616;BME280;11985;49.404;7.734;2023-04-19T18:42:55;97452.94;;;9.73;38.35
23616;BME280;11985;49.404;7.734;2023-04-19T18:47:58;97447.81;;;9.58;38.65
23616;BME280;11985;49.404;7.734;2023-04-19T18:53:00;97455.56;;;9.38;39.22
23616;BME280;11985;49.404;7.734;2023-04-19T18:58:03;97465.78;;;9.20;40.05
23616;BME280;11985;49.404;7.734;2023-04-19T19:03:05;97472.56;;;9.08;40.64
23616;BME280;11985;49.404;7.734;2023-04-19T19:08:06;97478.34;;;8.96;40.83
23616;BME280;11985;49.404;7.734;2023-04-19T19:13:09;97473.59;;;8.85;41.56
23616;BME280;11985;49.404;7.734;2023-04-19T19:18:12;97480.53;;;8.71;41.82
23616;BME280;11985;49.404;7.734;2023-04-19T19:23:13;97488.56;;;8.63;42.41
23616;BME280;11985;49.404;7.734;2023-04-19T19:28:16;97487.19;;;8.67;42.99
23616;BME280;11985;49.404;7.734;2023-04-19T19:33:18;97481.94;;;8.67;43.10
23616;BME280;11985;49.404;7.734;2023-04-19T19:38:20;97482.59;;;8.55;43.49
23616;BME280;11985;49.404;7.734;2023-04-19T19:43:23;97481.13;;;8.45;43.87
23616;BME280;11985;49.404;7.734;2023-04-19T19:48:25;97481.59;;;8.34;44.20
23616;BME280;11985;49.404;7.734;2023-04-19T19:53:26;97493.94;;;8.19;44.86
23616;BME280;11985;49.404;7.734;2023-04-19T19:58:32;97494.13;;;8.03;45.16
23616;BME280;11985;49.404;7.734;2023-04-19T20:03:33;97489.09;;;7.86;45.86
23616;BME280;11985;49.404;7.734;2023-04-19T20:08:35;97496.16;;;7.71;46.44
23616;BME280;11985;49.404;7.734;2023-04-19T20:13:38;97502.84;;;7.59;46.84
23616;BME280;11985;49.404;7.734;2023-04-19T20:18:40;97490.19;;;7.48;47.39
23616;BME280;11985;49.404;7.734;2023-04-19T20:23:42;97492.91;;;7.39;47.71
23616;BME280;11985;49.404;7.734;2023-04-19T20:28:45;97494.31;;;7.27;48.34
23616;BME280;11985;49.404;7.734;2023-04-19T20:33:46;97498.03;;;7.18;48.87
23616;BME280;11985;49.404;7.734;2023-04-19T20:38:49;97495.69;;;7.23;49.40
23616;BME280;11985;49.404;7.734;2023-04-19T20:43:52;97494.44;;;7.34;49.07
23616;BME280;11985;49.404;7.734;2023-04-19T20:48:56;97492.97;;;7.31;49.04
23616;BME280;11985;49.404;7.734;2023-04-19T20:53:57;97492.59;;;7.20;49.10
23616;BME280;11985;49.404;7.734;2023-04-19T20:59:00;97487.63;;;7.10;49.69
23616;BME280;11985;49.404;7.734;2023-04-19T21:04:02;97493.38;;;6.91;50.58
23616;BME280;11985;49.404;7.734;2023-04-19T21:09:04;97484.38;;;6.70;50.82
23616;BME280;11985;49.404;7.734;2023-04-19T21:14:07;97484.16;;;6.57;50.88
23616;BME280;11985;49.404;7.734;2023-04-19T21:19:09;97480.94;;;6.47;51.38
23616;BME280;11985;49.404;7.734;2023-04-19T21:24:10;97475.94;;;6.37;51.56
23616;BME280;11985;49.404;7.734;2023-04-19T21:29:13;97480.28;;;6.22;51.40
23616;BME280;11985;49.404;7.734;2023-04-19T21:34:15;97470.06;;;6.12;52.00
23616;BME280;11985;49.404;7.734;2023-04-19T21:39:17;97466.22;;;5.92;52.70
23616;BME280;11985;49.404;7.734;2023-04-19T21:44:19;97468.28;;;5.65;53.74
23616;BME280;11985;49.404;7.734;2023-04-19T21:49:21;97464.91;;;5.48;53.65
23616;BME280;11985;49.404;7.734;2023-04-19T21:54:23;97465.09;;;5.47;53.55
23616;BME280;11985;49.404;7.734;2023-04-19T21:59:27;97475.56;;;5.30;54.01
23616;BME280;11985;49.404;7.734;2023-04-19T22:04:29;97466.59;;;5.25;54.16
23616;BME280;11985;49.404;7.734;2023-04-19T22:09:30;97462.56;;;5.14;54.18
23616;BME280;11985;49.404;7.734;2023-04-19T22:14:34;97461.75;;;5.14;54.43
23616;BME280;11985;49.404;7.734;2023-04-19T22:19:36;97458.97;;;5.07;54.81
23616;BME280;11985;49.404;7.734;2023-04-19T22:24:38;97461.09;;;5.03;54.63
23616;BME280;11985;49.404;7.734;2023-04-19T22:29:41;97463.53;;;5.05;54.44
23616;BME280;11985;49.404;7.734;2023-04-19T22:34:43;97448.88;;;4.96;54.89
23616;BME280;11985;49.404;7.734;2023-04-19T22:39:44;97450.38;;;4.90;55.08
23616;BME280;11985;49.404;7.734;2023-04-19T22:44:47;97451.19;;;4.91;55.08
23616;BME280;11985;49.404;7.734;2023-04-19T22:49:49;97437.47;;;4.81;55.65
23616;BME280;11985;49.404;7.734;2023-04-19T22:54:51;97437.50;;;4.56;56.54
23616;BME280;11985;49.404;7.734;2023-04-19T22:59:54;97434.56;;;4.51;57.30
23616;BME280;11985;49.404;7.734;2023-04-19T23:04:55;97422.16;;;4.37;57.59
23616;BME280;11985;49.404;7.734;2023-04-19T23:09:57;97413.69;;;4.27;58.58
23616;BME280;11985;49.404;7.734;2023-04-19T23:15:01;97411.75;;;4.12;58.99
23616;BME280;11985;49.404;7.734;2023-04-19T23:20:04;97394.28;;;3.96;59.99
23616;BME280;11985;49.404;7.734;2023-04-19T23:25:07;97393.44;;;3.80;61.12
23616;BME280;11985;49.404;7.734;2023-04-19T23:30:11;97384.56;;;3.48;62.48
23616;BME280;11985;49.404;7.734;2023-04-19T23:35:12;97371.13;;;3.27;63.76
23616;BME280;11985;49.404;7.734;2023-04-19T23:40:14;97375.34;;;3.20;64.72
23616;BME280;11985;49.404;7.734;2023-04-19T23:45:17;97368.13;;;3.05;65.72
23616;BME280;11985;49.404;7.734;2023-04-19T23:50:19;97362.34;;;2.85;66.87
23616;BME280;11985;49.404;7.734;2023-04-19T23:55:20;97355.16;;;2.79;68.08
